Time;durP1;ratioP1;P1;durP2;ratioP2;P2;SDS_P1;SDS_P2;PMS_P1;PMS_P2;Temp;Humidity;BMP_temperature;BMP_pressure;BME280_temperature;BME280_humidity;BME280_pressure;Samples;Min_cycle;Max_cycle;Signal;HPM_P1;HPM_P2
2023/05/29 00:01:35;;;;;;;14.80;9.52;;;13.80;62.80;;;;;;5001551;28;20053;-64
2023/05/29 00:04:01;;;;;;;23.02;12.27;;;13.70;62.90;;;;;;4998904;28;20505;-63
2023/05/29 00:06:27;;;;;;;28.10;13.75;;;13.60;63.00;;;;;;4983165;28;20134;-64
2023/05/29 00:08:52;;;;;;;18.25;9.98;;;13.60;63.30;;;;;;5001105;28;20068;-63
2023/05/29 00:11:18;;;;;;;16.00;7.80;;;13.50;63.50;;;;;;5004036;28;20034;-62
2023/05/29 00:13:44;;;;;;;13.93;6.63;;;13.50;63.60;;;;;;5001496;28;20033;-63
2023/05/29 00:16:09;;;;;;;12.07;6.50;;;13.40;63.80;;;;;;5002827;28;20141;-63
2023/05/29 00:18:35;;;;;;;13.32;6.78;;;13.40;64.00;;;;;;4998930;28;20038;-64
2023/05/29 00:21:02;;;;;;;10.73;6.20;;;13.30;64.00;;;;;;5000111;28;20049;-63
2023/05/29 00:23:27;;;;;;;12.63;5.90;;;13.30;64.00;;;;;;5004625;28;20123;-62
2023/05/29 00:25:53;;;;;;;9.75;5.90;;;13.20;64.00;;;;;;4997307;28;20041;-63
2023/05/29 00:28:18;;;;;;;8.98;5.82;;;13.20;64.10;;;;;;5002051;28;20040;-63
2023/05/29 00:30:44;;;;;;;7.72;5.13;;;13.20;64.40;;;;;;5002988;28;20026;-62
2023/05/29 00:33:10;;;;;;;9.45;5.43;;;13.20;64.50;;;;;;5006437;28;20098;-64
2023/05/29 00:35:35;;;;;;;12.70;5.43;;;13.10;64.50;;;;;;5001283;28;20184;-64
2023/05/29 00:38:01;;;;;;;8.02;5.22;;;13.10;64.60;;;;;;4999748;28;20537;-63
2023/05/29 00:40:26;;;;;;;7.88;5.28;;;13.00;64.80;;;;;;4999356;28;20041;-62
2023/05/29 00:42:52;;;;;;;8.60;5.13;;;13.00;64.90;;;;;;4998566;28;20037;-62
2023/05/29 00:45:18;;;;;;;9.57;5.47;;;13.00;65.00;;;;;;5000945;28;20034;-63
2023/05/29 00:47:44;;;;;;;11.52;5.65;;;12.90;65.10;;;;;;5001313;28;20042;-63
2023/05/29 00:50:13;;;;;;;8.13;5.03;;;12.70;65.00;;;;;;4999557;28;20045;-63
2023/05/29 00:52:40;;;;;;;8.20;5.45;;;12.80;65.30;;;;;;4998245;28;20492;-63
2023/05/29 00:55:06;;;;;;;7.80;5.05;;;12.80;65.50;;;;;;4999204;28;20061;-64
2023/05/29 00:57:34;;;;;;;8.43;5.30;;;12.70;65.80;;;;;;5000753;28;20172;-63
2023/05/29 01:00:03;;;;;;;9.52;5.60;;;12.70;65.90;;;;;;4999632;28;20044;-63
2023/05/29 01:02:29;;;;;;;9.73;5.40;;;12.70;66.00;;;;;;5004557;28;20477;-63
2023/05/29 01:04:56;;;;;;;8.90;5.68;;;12.70;66.20;;;;;;4999221;28;20030;-64
2023/05/29 01:07:22;;;;;;;8.10;5.38;;;12.70;66.60;;;;;;4998709;28;20639;-63
2023/05/29 01:09:47;;;;;;;9.43;5.35;;;12.70;66.50;;;;;;5000955;28;20092;-63
2023/05/29 01:12:31;;;;;;;8.00;5.07;;;12.70;66.50;;;;;;4998679;28;20068;-63
2023/05/29 01:15:04;;;;;;;9.32;5.72;;;12.70;66.50;;;;;;4980757;28;21061;-63
2023/05/29 01:17:45;;;;;;;9.93;5.95;;;12.70;67.10;;;;;;5002769;28;20113;-63
2023/05/29 01:20:52;;;;;;;8.80;5.80;;;12.60;67.30;;;;;;4999876;28;20055;-63
2023/05/29 01:23:26;;;;;;;8.82;5.82;;;12.60;68.00;;;;;;5005556;28;20026;-63
2023/05/29 01:26:07;;;;;;;7.60;5.30;;;12.50;66.40;;;;;;5001384;28;20116;-62
2023/05/29 01:28:41;;;;;;;12.05;5.75;;;12.50;67.60;;;;;;5003151;28;20315;-61
2023/05/29 01:31:07;;;;;;;9.48;5.15;;;12.40;67.10;;;;;;5004364;28;20084;-62
2023/05/29 01:33:33;;;;;;;10.10;5.30;;;12.40;66.80;;;;;;5003438;28;20037;-63
2023/05/29 01:35:58;;;;;;;8.88;5.25;;;12.30;66.90;;;;;;4999913;28;20030;-63
2023/05/29 01:38:24;;;;;;;8.13;5.07;;;12.30;67.20;;;;;;4998799;28;20057;-63
2023/05/29 01:40:51;;;;;;;8.85;5.55;;;12.20;67.30;;;;;;4997755;28;20037;-62
2023/05/29 01:43:16;;;;;;;9.55;5.18;;;12.20;67.60;;;;;;4999040;28;20096;-62
2023/05/29 01:45:42;;;;;;;7.85;5.43;;;12.20;67.80;;;;;;5000203;28;20057;-63
2023/05/29 01:48:08;;;;;;;8.25;5.20;;;12.20;67.80;;;;;;4999673;28;20468;-63
2023/05/29 01:50:35;;;;;;;8.80;4.82;;;12.20;68.00;;;;;;4999073;28;20030;-63
2023/05/29 01:53:01;;;;;;;6.47;5.07;;;12.20;68.10;;;;;;4997812;28;20026;-63
2023/05/29 01:55:26;;;;;;;7.63;5.30;;;12.20;68.00;;;;;;4997527;28;20100;-63
2023/05/29 01:57:53;;;;;;;10.32;5.45;;;12.20;67.90;;;;;;4999289;28;20683;-63
2023/05/29 02:00:19;;;;;;;7.55;5.22;;;12.20;67.80;;;;;;4998854;28;20030;-63
2023/05/29 02:02:45;;;;;;;7.80;5.80;;;12.20;68.00;;;;;;4998239;28;20302;-62
2023/05/29 02:05:10;;;;;;;9.25;5.60;;;12.10;68.00;;;;;;5000441;28;20026;-63
2023/05/29 02:07:36;;;;;;;8.57;5.68;;;12.10;68.10;;;;;;4999507;28;20428;-64
2023/05/29 02:10:03;;;;;;;9.05;5.40;;;12.10;68.20;;;;;;5000659;28;20096;-63
2023/05/29 02:12:29;;;;;;;6.32;5.05;;;12.00;68.20;;;;;;4997155;28;20400;-63
2023/05/29 02:14:55;;;;;;;8.95;5.43;;;12.00;68.30;;;;;;4998101;28;20042;-64
2023/05/29 02:17:20;;;;;;;9.35;5.25;;;12.00;68.10;;;;;;4997141;28;20040;-64
2023/05/29 02:19:46;;;;;;;7.35;4.95;;;12.00;68.10;;;;;;5000269;28;20080;-63
2023/05/29 02:22:12;;;;;;;11.35;5.75;;;12.00;68.20;;;;;;4997703;28;20096;-64
2023/05/29 02:24:38;;;;;;;10.35;6.07;;;12.00;68.60;;;;;;4998218;28;20136;-63
2023/05/29 02:27:03;;;;;;;9.73;6.30;;;11.90;68.50;;;;;;4998049;28;20038;-63
2023/05/29 02:29:29;;;;;;;8.27;5.57;;;11.90;68.60;;;;;;5007654;28;20033;-63
2023/05/29 02:31:55;;;;;;;7.97;5.05;;;11.80;68.70;;;;;;5009321;28;20489;-63
2023/05/29 02:34:24;;;;;;;7.80;5.40;;;11.80;68.90;;;;;;5003404;28;20080;-64
2023/05/29 02:36:51;;;;;;;9.68;5.78;;;11.80;69.20;;;;;;5005075;28;20072;-62
2023/05/29 02:39:17;;;;;;;10.20;5.60;;;11.70;69.30;;;;;;5001582;28;20476;-63
2023/05/29 02:41:43;;;;;;;8.43;5.63;;;11.70;69.40;;;;;;5003933;28;20034;-63
2023/05/29 02:44:08;;;;;;;11.38;6.20;;;11.70;69.50;;;;;;5002846;28;20121;-63
2023/05/29 02:46:34;;;;;;;10.77;6.45;;;11.60;69.50;;;;;;5004089;28;20077;-64
2023/05/29 02:49:00;;;;;;;12.38;6.70;;;11.60;69.50;;;;;;5002576;28;20034;-63
2023/05/29 02:51:25;;;;;;;11.38;6.25;;;11.60;69.70;;;;;;5003819;28;20172;-62
2023/05/29 02:53:51;;;;;;;11.27;6.57;;;11.50;69.80;;;;;;5002567;28;20042;-62
2023/05/29 02:56:16;;;;;;;11.82;5.90;;;11.50;69.90;;;;;;5000156;28;20123;-63
2023/05/29 02:58:42;;;;;;;13.80;6.50;;;11.50;70.30;;;;;;5002700;28;20088;-63
2023/05/29 03:01:08;;;;;;;10.23;6.35;;;11.50;70.40;;;;;;5001843;28;20518;-64
2023/05/29 03:03:34;;;;;;;11.23;6.18;;;11.40;70.30;;;;;;5002055;28;20034;-64
2023/05/29 03:06:00;;;;;;;12.27;6.65;;;11.40;70.50;;;;;;5003634;28;20592;-63
2023/05/29 03:08:27;;;;;;;12.25;6.75;;;11.30;70.50;;;;;;5002823;28;20417;-63
2023/05/29 03:10:54;;;;;;;11.77;6.40;;;11.30;70.70;;;;;;5002227;28;20061;-63
2023/05/29 03:13:19;;;;;;;9.73;6.07;;;11.30;71.00;;;;;;5001306;28;20043;-63
2023/05/29 03:15:45;;;;;;;8.45;5.28;;;11.30;71.10;;;;;;4984156;28;20304;-62
2023/05/29 03:18:11;;;;;;;8.07;5.28;;;11.30;71.10;;;;;;5000938;28;20306;-63
2023/05/29 03:20:37;;;;;;;10.40;5.90;;;11.30;71.00;;;;;;5000629;28;20587;-62
2023/05/29 03:23:03;;;;;;;10.80;6.28;;;11.30;70.90;;;;;;5007083;28;20037;-63
2023/05/29 03:25:29;;;;;;;14.18;7.25;;;11.30;70.90;;;;;;5002588;28;20332;-63
2023/05/29 03:27:55;;;;;;;10.63;6.75;;;11.30;70.90;;;;;;5001485;28;20501;-63
2023/05/29 03:30:21;;;;;;;10.15;6.65;;;11.20;71.00;;;;;;4999851;28;20039;-63
2023/05/29 03:32:46;;;;;;;11.98;6.28;;;11.20;71.10;;;;;;4999715;28;20399;-62
2023/05/29 03:35:12;;;;;;;9.35;6.22;;;11.10;71.10;;;;;;5002176;28;20153;-63
2023/05/29 03:37:37;;;;;;;10.38;6.63;;;11.10;71.20;;;;;;5008113;28;20034;-63
2023/05/29 03:40:04;;;;;;;10.40;6.28;;;11.10;71.30;;;;;;5006654;28;20030;-63
2023/05/29 03:42:31;;;;;;;11.07;6.80;;;11.10;71.40;;;;;;5006710;28;20446;-63
2023/05/29 03:44:56;;;;;;;13.07;7.07;;;11.00;71.50;;;;;;5007972;28;20117;-63
2023/05/29 03:47:22;;;;;;;12.30;6.88;;;11.00;71.60;;;;;;5006490;28;20109;-63
2023/05/29 03:49:48;;;;;;;11.77;7.22;;;11.00;71.80;;;;;;4999974;28;20339;-63
2023/05/29 03:52:13;;;;;;;14.90;7.55;;;11.00;71.90;;;;;;5004632;28;20138;-62
2023/05/29 03:54:40;;;;;;;12.40;7.00;;;11.00;72.00;;;;;;5001884;28;20033;-63
2023/05/29 03:57:06;;;;;;;10.73;6.70;;;10.90;72.00;;;;;;5004151;28;20034;-62
2023/05/29 03:59:32;;;;;;;12.57;6.47;;;10.90;73.00;;;;;;5001841;28;20045;-63
2023/05/29 04:01:58;;;;;;;10.90;6.68;;;10.90;72.20;;;;;;5000679;28;20417;-63
2023/05/29 04:04:25;;;;;;;13.68;6.95;;;10.90;72.50;;;;;;5000109;28;20730;-63
2023/05/29 04:06:50;;;;;;;9.25;6.47;;;10.90;72.90;;;;;;5002927;28;20103;-62
2023/05/29 04:09:16;;;;;;;8.32;6.05;;;10.90;72.90;;;;;;5002697;28;20528;-63
2023/05/29 04:11:44;;;;;;;9.52;5.97;;;10.90;73.00;;;;;;5003076;28;20033;-62
2023/05/29 04:14:10;;;;;;;9.68;5.80;;;10.90;72.90;;;;;;5003223;28;20041;-63
2023/05/29 04:16:35;;;;;;;8.63;5.47;;;11.00;72.90;;;;;;5001341;28;20046;-62
2023/05/29 04:19:01;;;;;;;10.35;5.78;;;11.00;72.90;;;;;;5000632;28;20033;-63
2023/05/29 04:21:26;;;;;;;9.25;6.00;;;11.00;72.90;;;;;;4999184;28;20088;-62
2023/05/29 04:23:52;;;;;;;11.38;6.55;;;11.00;73.00;;;;;;5003584;28;20518;-63
2023/05/29 04:26:20;;;;;;;10.00;5.60;;;11.00;73.00;;;;;;4999425;28;20034;-64
2023/05/29 04:28:46;;;;;;;10.55;6.07;;;11.10;73.10;;;;;;5002901;28;20045;-63
2023/05/29 04:31:14;;;;;;;8.65;5.55;;;11.10;73.10;;;;;;4999976;28;20493;-63
2023/05/29 04:33:40;;;;;;;8.70;5.50;;;11.10;73.10;;;;;;5003977;28;20030;-62
2023/05/29 04:36:08;;;;;;;9.90;5.63;;;11.10;73.20;;;;;;5001151;28;20034;-63
2023/05/29 04:38:33;;;;;;;9.85;5.93;;;11.20;73.30;;;;;;5003457;28;20030;-63
2023/05/29 04:40:59;;;;;;;10.55;6.18;;;11.20;73.40;;;;;;5001709;28;20044;-62
2023/05/29 04:43:26;;;;;;;9.00;5.50;;;11.30;73.40;;;;;;5000253;28;20042;-63
2023/05/29 04:45:53;;;;;;;8.23;5.32;;;11.30;73.60;;;;;;5000607;28;20348;-63
2023/05/29 04:48:18;;;;;;;8.02;5.28;;;11.30;73.70;;;;;;5002170;28;20038;-63
2023/05/29 04:50:44;;;;;;;9.45;5.50;;;11.40;73.70;;;;;;4998528;28;20037;-62
2023/05/29 04:53:10;;;;;;;9.23;5.50;;;11.40;73.80;;;;;;5002708;28;20030;-62
2023/05/29 04:55:36;;;;;;;12.88;5.80;;;11.50;73.90;;;;;;5001789;28;20076;-63
2023/05/29 04:58:02;;;;;;;10.77;6.05;;;11.50;74.00;;;;;;5000291;28;20053;-63
2023/05/29 05:00:28;;;;;;;7.50;5.43;;;11.60;74.10;;;;;;5000105;28;20063;-63
2023/05/29 05:02:53;;;;;;;8.80;5.68;;;11.60;74.10;;;;;;5002074;28;20405;-63
2023/05/29 05:05:19;;;;;;;8.95;5.68;;;11.70;74.30;;;;;;4999087;28;20065;-62
2023/05/29 05:07:45;;;;;;;8.38;5.53;;;11.80;74.40;;;;;;5002621;28;20040;-62
2023/05/29 05:10:11;;;;;;;9.02;5.88;;;11.90;74.40;;;;;;5002160;28;20034;-63
2023/05/29 05:12:37;;;;;;;8.93;5.28;;;11.90;74.60;;;;;;4999746;28;20409;-64
2023/05/29 05:15:03;;;;;;;7.32;5.00;;;12.00;74.60;;;;;;4999530;28;20041;-63
2023/05/29 05:17:28;;;;;;;9.43;5.63;;;12.10;74.50;;;;;;5000377;28;20048;-63
2023/05/29 05:19:54;;;;;;;8.93;5.82;;;12.20;74.70;;;;;;5000726;28;20406;-61
2023/05/29 05:22:20;;;;;;;7.30;5.22;;;12.30;74.70;;;;;;4999645;28;20042;-63
2023/05/29 05:24:45;;;;;;;8.38;5.85;;;12.50;74.50;;;;;;5000874;28;20050;-61
2023/05/29 05:27:11;;;;;;;7.88;5.28;;;12.50;74.40;;;;;;5001228;28;20120;-62
2023/05/29 05:29:37;;;;;;;9.52;5.35;;;12.70;74.50;;;;;;5000762;28;20042;-63
2023/05/29 05:32:02;;;;;;;7.47;4.97;;;12.80;74.40;;;;;;4996776;28;20038;-63
2023/05/29 05:34:28;;;;;;;7.55;5.30;;;12.90;74.20;;;;;;4982821;28;20430;-63
2023/05/29 05:36:54;;;;;;;7.60;5.28;;;13.10;74.00;;;;;;5001974;28;20038;-63
2023/05/29 05:39:19;;;;;;;7.93;5.32;;;13.20;73.40;;;;;;5005088;28;20084;-62
2023/05/29 05:41:45;;;;;;;7.13;5.05;;;13.30;73.00;;;;;;5005480;28;20036;-63
2023/05/29 05:44:10;;;;;;;8.00;5.28;;;13.50;73.00;;;;;;5004333;28;20155;-63
2023/05/29 05:46:36;;;;;;;7.68;5.20;;;13.60;72.70;;;;;;5005109;28;20157;-64
2023/05/29 05:49:01;;;;;;;7.93;5.18;;;13.70;72.50;;;;;;5005018;28;20042;-62
2023/05/29 05:51:27;;;;;;;6.93;4.85;;;13.80;71.90;;;;;;5004685;28;20490;-62
2023/05/29 05:53:53;;;;;;;7.10;4.85;;;14.00;71.60;;;;;;5003402;28;20026;-63
2023/05/29 05:56:19;;;;;;;8.05;4.80;;;14.10;71.30;;;;;;4999781;28;20038;-64
2023/05/29 05:58:44;;;;;;;6.47;4.63;;;14.20;70.90;;;;;;4998906;28;20049;-63
2023/05/29 06:01:10;;;;;;;9.07;5.88;;;14.30;70.60;;;;;;4999356;28;20185;-62
2023/05/29 06:03:37;;;;;;;9.07;4.85;;;14.40;70.50;;;;;;5000710;28;20041;-63
2023/05/29 06:06:03;;;;;;;7.03;4.63;;;14.60;70.00;;;;;;4998304;28;20030;-63
2023/05/29 06:08:30;;;;;;;6.88;4.70;;;14.70;69.90;;;;;;5000519;28;20037;-64
2023/05/29 06:10:56;;;;;;;10.80;4.97;;;14.80;69.90;;;;;;5005046;28;20041;-64
2023/05/29 06:13:21;;;;;;;10.13;5.35;;;14.90;69.70;;;;;;4981015;28;20045;-64
2023/05/29 06:15:47;;;;;;;8.57;4.90;;;15.00;69.50;;;;;;4990369;28;20084;-64
2023/05/29 06:18:12;;;;;;;7.50;4.78;;;15.10;69.30;;;;;;4993389;28;20034;-64
2023/05/29 06:20:38;;;;;;;9.25;4.85;;;15.20;69.30;;;;;;4996859;28;20152;-63
2023/05/29 06:23:04;;;;;;;7.45;5.20;;;15.30;69.10;;;;;;4992159;28;20037;-64
2023/05/29 06:25:33;;;;;;;9.10;4.85;;;15.40;69.80;;;;;;4987957;28;20404;-63
2023/05/29 06:28:02;;;;;;;7.78;4.68;;;15.50;68.60;;;;;;4994501;28;20088;-64
2023/05/29 06:30:28;;;;;;;10.18;5.15;;;15.60;68.60;;;;;;4990735;28;20041;-64
2023/05/29 06:32:54;;;;;;;10.52;5.40;;;15.70;68.40;;;;;;4991040;28;20503;-63
2023/05/29 06:35:20;;;;;;;9.57;4.75;;;15.80;68.30;;;;;;4991596;28;20041;-64
2023/05/29 06:37:46;;;;;;;9.90;5.10;;;15.90;67.80;;;;;;4990006;28;20038;-64
2023/05/29 06:40:13;;;;;;;7.60;4.80;;;16.00;67.80;;;;;;4989906;28;20513;-63
2023/05/29 06:42:39;;;;;;;8.98;4.95;;;16.10;67.80;;;;;;4998759;28;20037;-63
2023/05/29 06:45:05;;;;;;;7.30;4.90;;;16.20;67.60;;;;;;4986301;28;20038;-64
2023/05/29 06:47:31;;;;;;;9.65;5.20;;;16.30;67.40;;;;;;4990918;28;20073;-62
2023/05/29 06:49:57;;;;;;;12.85;5.15;;;16.40;67.30;;;;;;4992485;28;20168;-64
2023/05/29 06:52:22;;;;;;;6.18;4.63;;;16.40;67.30;;;;;;4990444;28;20064;-63
2023/05/29 06:54:48;;;;;;;7.93;5.10;;;16.70;67.50;;;;;;4990237;28;20536;-63
2023/05/29 06:57:13;;;;;;;10.38;5.00;;;16.60;67.20;;;;;;4996265;28;20045;-64
2023/05/29 06:59:39;;;;;;;7.78;4.72;;;16.70;66.90;;;;;;4995374;28;20034;-63
2023/05/29 07:02:05;;;;;;;7.75;4.70;;;16.80;66.90;;;;;;4993669;28;20088;-64
2023/05/29 07:04:31;;;;;;;7.80;4.75;;;16.90;66.70;;;;;;4970521;28;20042;-63
2023/05/29 07:06:56;;;;;;;9.02;5.07;;;16.90;66.40;;;;;;4996999;28;20128;-63
2023/05/29 07:09:22;;;;;;;8.48;5.00;;;17.00;66.00;;;;;;4999413;28;20596;-64
2023/05/29 07:11:48;;;;;;;6.78;4.72;;;17.10;66.00;;;;;;5003279;28;20587;-63
2023/05/29 07:14:14;;;;;;;8.82;5.18;;;17.20;65.90;;;;;;5000256;28;20932;-64
2023/05/29 07:16:39;;;;;;;6.40;4.28;;;17.20;65.70;;;;;;4999588;28;20088;-64
2023/05/29 07:19:05;;;;;;;7.70;4.72;;;17.30;65.30;;;;;;4990521;28;20042;-63
2023/05/29 07:21:31;;;;;;;8.38;5.55;;;17.50;65.30;;;;;;4999209;28;20038;-64
2023/05/29 07:23:56;;;;;;;8.38;4.97;;;17.60;64.80;;;;;;5002583;28;20042;-64
2023/05/29 07:26:22;;;;;;;6.60;4.68;;;17.60;64.50;;;;;;4998350;28;20068;-64
2023/05/29 07:28:49;;;;;;;7.30;4.75;;;17.80;64.20;;;;;;5000081;28;20054;-64
2023/05/29 07:31:14;;;;;;;6.97;4.78;;;17.90;64.10;;;;;;5000933;28;20052;-64
2023/05/29 07:33:41;;;;;;;8.75;4.93;;;18.00;64.00;;;;;;4999313;28;20049;-63
2023/05/29 07:36:07;;;;;;;8.63;5.07;;;18.20;63.90;;;;;;5002240;28;20046;-64
2023/05/29 07:38:33;;;;;;;7.97;5.20;;;18.30;63.50;;;;;;5000683;28;20092;-65
2023/05/29 07:40:58;;;;;;;6.57;4.80;;;18.40;63.40;;;;;;4999820;28;20052;-64
2023/05/29 07:43:24;;;;;;;9.10;5.25;;;18.60;63.20;;;;;;4996968;28;20050;-64
2023/05/29 07:45:50;;;;;;;8.10;5.40;;;18.70;62.40;;;;;;5001745;28;20029;-64
2023/05/29 07:48:15;;;;;;;10.38;4.70;;;18.70;62.10;;;;;;5001389;28;20064;-63
2023/05/29 07:50:41;;;;;;;5.60;4.47;;;18.90;62.40;;;;;;5002927;28;20034;-63
2023/05/29 07:53:06;;;;;;;7.03;4.85;;;19.00;62.10;;;;;;5005110;28;20044;-64
2023/05/29 07:55:34;;;;;;;7.53;5.15;;;19.10;61.80;;;;;;5005675;28;20549;-63
2023/05/29 07:57:59;;;;;;;8.13;4.68;;;19.20;61.30;;;;;;5005039;28;20062;-64
2023/05/29 08:00:25;;;;;;;6.97;4.95;;;19.30;61.30;;;;;;5004620;28;20084;-63
2023/05/29 08:02:51;;;;;;;7.15;4.90;;;19.30;60.30;;;;;;4999863;28;20033;-64
2023/05/29 08:05:17;;;;;;;9.68;5.22;;;19.50;60.10;;;;;;5006187;28;20417;-64
2023/05/29 08:07:44;;;;;;;8.50;4.95;;;19.60;59.70;;;;;;5007064;28;20108;-64
2023/05/29 08:10:09;;;;;;;7.47;5.13;;;19.60;60.00;;;;;;5006008;28;20580;-61
2023/05/29 08:12:35;;;;;;;8.13;4.95;;;19.80;59.70;;;;;;5003462;28;20037;-64
2023/05/29 08:15:02;;;;;;;6.55;4.32;;;19.90;59.60;;;;;;5007450;28;20513;-63
2023/05/29 08:17:27;;;;;;;6.07;4.53;;;20.00;59.40;;;;;;5006648;28;20045;-64
2023/05/29 08:19:53;;;;;;;5.90;4.47;;;20.10;59.10;;;;;;5006944;28;20030;-64
2023/05/29 08:22:19;;;;;;;9.00;5.00;;;20.20;59.00;;;;;;5006955;28;20045;-64
2023/05/29 08:24:44;;;;;;;7.93;5.00;;;20.30;58.50;;;;;;5003671;28;20463;-63
2023/05/29 08:27:10;;;;;;;7.72;4.68;;;20.40;58.20;;;;;;5006540;28;20038;-63
2023/05/29 08:29:36;;;;;;;6.65;4.38;;;20.50;58.20;;;;;;5006288;28;20042;-64
2023/05/29 08:32:02;;;;;;;5.78;4.55;;;20.60;58.20;;;;;;5006737;28;20041;-64
2023/05/29 08:34:27;;;;;;;9.57;4.88;;;20.70;57.70;;;;;;5005268;28;20030;-65
2023/05/29 08:36:54;;;;;;;7.88;4.85;;;20.80;57.70;;;;;;5004937;28;20030;-64
2023/05/29 08:39:20;;;;;;;6.35;4.70;;;20.80;57.90;;;;;;5005741;28;20044;-64
2023/05/29 08:42:07;;;;;;;6.95;4.25;;;20.90;57.90;;;;;;5005727;28;20034;-64
2023/05/29 08:44:33;;;;;;;5.75;4.30;;;21.10;57.20;;;;;;4999826;28;20886;-63
2023/05/29 08:47:05;;;;;;;7.25;4.68;;;21.10;57.60;;;;;;5006411;28;20075;-63
2023/05/29 08:49:42;;;;;;;8.25;5.05;;;21.20;56.80;;;;;;5003702;28;20678;-63
2023/05/29 08:52:16;;;;;;;6.78;4.90;;;21.30;56.70;;;;;;5005478;28;20054;-64
2023/05/29 08:54:43;;;;;;;6.85;4.10;;;21.40;56.50;;;;;;5006195;28;20073;-63
2023/05/29 08:57:10;;;;;;;5.57;4.10;;;21.40;56.70;;;;;;5004009;28;20046;-64
2023/05/29 08:59:39;;;;;;;5.05;3.92;;;21.50;56.50;;;;;;5005384;28;20053;-64
2023/05/29 09:02:05;;;;;;;6.40;4.32;;;21.60;56.60;;;;;;5006589;28;20056;-63
2023/05/29 09:04:31;;;;;;;6.93;4.20;;;21.80;56.70;;;;;;5006122;28;20045;-64
2023/05/29 09:06:58;;;;;;;5.95;4.18;;;21.90;55.70;;;;;;5005330;28;20034;-64
2023/05/29 09:09:26;;;;;;;5.22;4.15;;;22.00;54.70;;;;;;5005466;28;20116;-63
2023/05/29 09:11:53;;;;;;;6.57;4.30;;;22.10;54.90;;;;;;5003347;28;20553;-64
2023/05/29 09:14:34;;;;;;;5.60;3.72;;;22.30;54.10;;;;;;5005337;28;20612;-64
2023/05/29 09:17:00;;;;;;;4.40;3.78;;;22.40;53.50;;;;;;5005170;28;20038;-64
2023/05/29 09:19:26;;;;;;;5.88;4.25;;;22.50;53.70;;;;;;5005589;28;20038;-64
2023/05/29 09:21:59;;;;;;;7.22;3.85;;;22.60;52.90;;;;;;5005311;28;20038;-64
2023/05/29 09:24:27;;;;;;;5.20;3.75;;;22.70;52.70;;;;;;5005075;28;20646;-64
2023/05/29 09:26:53;;;;;;;6.25;3.72;;;22.80;52.70;;;;;;5005219;28;20046;-64
2023/05/29 09:29:19;;;;;;;4.35;3.38;;;23.00;52.70;;;;;;5003615;28;20165;-64
2023/05/29 09:31:48;;;;;;;4.68;3.67;;;23.10;52.70;;;;;;5004481;28;20034;-63
2023/05/29 09:34:14;;;;;;;5.43;3.50;;;23.20;52.20;;;;;;4998581;28;20528;-64
2023/05/29 09:36:40;;;;;;;5.72;3.20;;;23.40;52.50;;;;;;4999736;28;20030;-64
2023/05/29 09:39:09;;;;;;;3.83;3.17;;;23.50;51.70;;;;;;5006575;28;20032;-64
2023/05/29 09:41:44;;;;;;;3.70;3.08;;;23.60;50.90;;;;;;5006981;28;20453;-63
2023/05/29 09:44:16;;;;;;;5.65;3.70;;;23.70;50.00;;;;;;5004792;28;20068;-64
2023/05/29 09:46:42;;;;;;;7.00;3.70;;;23.80;49.30;;;;;;5005874;28;20037;-64
2023/05/29 09:49:14;;;;;;;4.60;3.17;;;23.90;48.90;;;;;;5002070;28;20042;-64
2023/05/29 09:51:41;;;;;;;5.70;3.00;;;23.90;49.10;;;;;;4998745;28;20609;-64
2023/05/29 09:54:16;;;;;;;4.18;3.05;;;24.00;48.90;;;;;;4997646;28;20026;-64
2023/05/29 09:56:43;;;;;;;4.53;3.55;;;24.10;47.70;;;;;;5004369;28;20037;-65
2023/05/29 09:59:13;;;;;;;5.80;3.42;;;24.20;47.50;;;;;;5004842;28;20452;-64
2023/05/29 10:01:43;;;;;;;4.75;3.40;;;24.30;47.40;;;;;;5005862;28;20046;-64
2023/05/29 10:04:10;;;;;;;3.65;3.00;;;24.30;46.60;;;;;;5003831;28;20041;-65
2023/05/29 10:06:46;;;;;;;6.90;3.47;;;24.40;46.80;;;;;;5004190;28;20050;-64
2023/05/29 10:09:15;;;;;;;3.20;2.92;;;24.50;46.50;;;;;;5005409;28;20487;-64
2023/05/29 10:11:43;;;;;;;5.65;2.65;;;24.50;46.20;;;;;;5005055;28;20109;-64
2023/05/29 10:14:14;;;;;;;3.95;2.72;;;24.50;45.10;;;;;;5004019;28;20060;-64
2023/05/29 10:16:43;;;;;;;3.75;2.95;;;24.60;45.60;;;;;;5004409;28;20042;-64
2023/05/29 10:19:13;;;;;;;3.63;3.17;;;24.60;46.20;;;;;;5004005;28;20064;-64
2023/05/29 10:21:40;;;;;;;3.63;2.75;;;24.70;44.90;;;;;;5005905;28;20040;-64
2023/05/29 10:24:08;;;;;;;4.25;3.00;;;24.70;45.30;;;;;;5005212;28;20048;-64
2023/05/29 10:26:39;;;;;;;4.30;2.88;;;24.80;44.30;;;;;;5005342;28;20113;-64
2023/05/29 10:29:14;;;;;;;5.05;2.88;;;24.80;43.60;;;;;;5005518;28;20124;-64
2023/05/29 10:31:46;;;;;;;3.80;2.50;;;24.90;44.50;;;;;;5005263;28;20516;-64
2023/05/29 10:34:47;;;;;;;3.72;2.83;;;24.90;44.40;;;;;;5004037;28;20769;-64
2023/05/29 10:37:36;;;;;;;4.10;2.58;;;24.90;44.00;;;;;;4972952;28;20091;-64
2023/05/29 10:40:16;;;;;;;3.80;2.85;;;25.00;43.40;;;;;;4996730;28;20029;-64
2023/05/29 10:42:52;;;;;;;4.65;2.67;;;25.10;43.70;;;;;;5006788;28;20034;-64
2023/05/29 10:45:30;;;;;;;5.53;2.42;;;25.10;43.70;;;;;;5007425;28;20137;-64
2023/05/29 10:47:56;;;;;;;4.00;2.58;;;25.10;39.50;;;;;;5007021;28;20022;-63
2023/05/29 10:50:40;;;;;;;3.42;2.92;;;25.10;41.00;;;;;;5008570;28;20107;-64
2023/05/29 10:53:10;;;;;;;3.00;2.70;;;25.10;41.70;;;;;;5009218;28;20149;-64
2023/05/29 10:55:40;;;;;;;3.22;2.67;;;25.00;42.60;;;;;;5009226;28;20044;-63
2023/05/29 10:58:21;;;;;;;3.70;2.50;;;25.00;42.10;;;;;;5009107;28;20065;-64
2023/05/29 11:00:47;;;;;;;5.22;2.88;;;25.00;41.00;;;;;;5009891;28;20038;-64
2023/05/29 11:03:21;;;;;;;3.53;2.83;;;25.00;42.00;;;;;;5007063;28;20030;-64
2023/05/29 11:05:58;;;;;;;4.70;2.50;;;24.90;41.80;;;;;;5006607;28;20037;-64
2023/05/29 11:08:45;;;;;;;2.95;2.65;;;25.00;42.20;;;;;;5002810;28;20029;-64
2023/05/29 11:11:36;;;;;;;3.17;2.63;;;25.00;42.40;;;;;;5006888;28;20277;-64
2023/05/29 11:14:06;;;;;;;3.63;2.33;;;25.10;40.80;;;;;;5005334;28;20034;-64
2023/05/29 11:16:32;;;;;;;5.03;2.80;;;25.10;40.80;;;;;;5006861;28;20045;-64
2023/05/29 11:19:04;;;;;;;3.88;2.50;;;25.10;41.20;;;;;;5006297;28;20030;-64
2023/05/29 11:21:45;;;;;;;4.43;2.42;;;25.10;41.30;;;;;;5007277;28;20045;-64
2023/05/29 11:24:19;;;;;;;3.13;2.30;;;25.10;38.80;;;;;;5006520;28;20524;-64
2023/05/29 11:26:45;;;;;;;5.03;2.30;;;25.10;39.70;;;;;;5006462;28;20042;-64
2023/05/29 11:29:13;;;;;;;21.23;3.20;;;25.00;41.10;;;;;;5006458;28;20038;-64
2023/05/29 11:31:40;;;;;;;2.83;2.17;;;25.00;40.40;;;;;;5006891;28;20044;-64
2023/05/29 11:34:10;;;;;;;3.30;2.22;;;25.10;40.30;;;;;;5006461;28;20040;-62
2023/05/29 11:36:36;;;;;;;2.78;2.40;;;25.00;39.70;;;;;;5006983;28;20124;-63
2023/05/29 11:39:03;;;;;;;4.47;2.47;;;25.10;40.80;;;;;;5006113;28;20096;-64
2023/05/29 11:41:29;;;;;;;2.60;2.00;;;25.10;40.40;;;;;;5002670;28;20037;-63
2023/05/29 11:44:02;;;;;;;5.13;2.33;;;25.10;40.00;;;;;;4985459;28;20041;-64
2023/05/29 11:46:30;;;;;;;3.25;2.30;;;25.10;38.60;;;;;;5003703;28;20406;-64
2023/05/29 11:48:56;;;;;;;3.92;2.50;;;25.10;39.30;;;;;;5007749;28;20045;-63
2023/05/29 11:51:22;;;;;;;3.38;2.20;;;25.10;39.10;;;;;;5005127;28;20050;-64
2023/05/29 11:53:49;;;;;;;2.97;2.53;;;25.10;39.30;;;;;;5005756;28;20030;-63
2023/05/29 11:56:14;;;;;;;3.10;2.30;;;25.20;39.60;;;;;;5007112;28;20045;-64
2023/05/29 11:58:41;;;;;;;2.78;2.20;;;25.20;39.30;;;;;;5008506;28;20378;-64
2023/05/29 12:01:08;;;;;;;3.58;2.28;;;25.10;39.20;;;;;;5005829;28;20378;-64
2023/05/29 12:03:52;;;;;;;2.97;2.20;;;25.20;39.20;;;;;;5007324;28;20041;-64
2023/05/29 12:06:35;;;;;;;2.20;1.67;;;25.20;39.00;;;;;;5006679;28;20046;-64
2023/05/29 12:09:02;;;;;;;2.45;1.98;;;25.30;38.40;;;;;;5008078;28;20026;-64
2023/05/29 12:11:28;;;;;;;2.67;1.90;;;25.30;38.80;;;;;;5004092;28;20042;-63
2023/05/29 12:14:01;;;;;;;4.35;2.10;;;25.30;38.40;;;;;;5005960;28;20026;-64
2023/05/29 12:16:29;;;;;;;2.45;1.77;;;25.40;38.30;;;;;;5006221;28;20092;-64
2023/05/29 12:18:55;;;;;;;3.28;2.05;;;25.40;38.80;;;;;;5006092;28;20049;-63
2023/05/29 12:21:22;;;;;;;3.40;2.00;;;25.50;38.50;;;;;;5005438;28;20536;-62
2023/05/29 12:23:48;;;;;;;3.42;2.10;;;25.50;38.20;;;;;;5002969;28;20452;-62
2023/05/29 12:26:15;;;;;;;4.35;1.80;;;25.50;38.20;;;;;;5002573;28;20038;-62
2023/05/29 12:28:45;;;;;;;2.00;1.80;;;25.50;38.50;;;;;;5006581;28;20069;-63
2023/05/29 12:31:11;;;;;;;3.53;1.98;;;25.50;38.00;;;;;;5005871;28;20034;-64
2023/05/29 12:33:42;;;;;;;3.28;2.22;;;25.60;38.10;;;;;;5005742;28;20161;-62
2023/05/29 12:36:10;;;;;;;2.92;2.10;;;25.60;37.60;;;;;;5006718;28;20135;-60
2023/05/29 12:38:49;;;;;;;2.92;1.92;;;25.60;38.20;;;;;;4999688;28;20631;-64
2023/05/29 12:41:29;;;;;;;3.53;2.33;;;25.60;37.00;;;;;;5002162;28;20045;-64
2023/05/29 12:43:58;;;;;;;7.72;2.10;;;25.60;37.30;;;;;;5003760;28;20034;-64
2023/05/29 12:46:34;;;;;;;3.10;1.92;;;25.60;37.40;;;;;;5006453;28;20089;-62
2023/05/29 12:49:21;;;;;;;2.83;2.13;;;25.70;37.10;;;;;;5005519;28;20160;-63